createdAt,value
2019-01-09T00:00:32.479Z,68.59
2019-01-09T00:01:25.231Z,67.51
2019-01-09T00:02:00.654Z,67.62
2019-01-09T00:02:36.123Z,66.97
2019-01-09T00:03:11.516Z,67.11
2019-01-09T00:03:47.208Z,67.45
2019-01-09T00:04:22.585Z,67.25
2019-01-09T00:04:58.079Z,67.29
2019-01-09T00:05:33.587Z,67.27
2019-01-09T00:06:08.999Z,67.18
2019-01-09T00:06:44.463Z,67.17
2019-01-09T00:07:20.483Z,67.21
2019-01-09T00:07:56.010Z,67.31
2019-01-09T00:08:31.665Z,67.43
2019-01-09T00:09:08.290Z,67.55
2019-01-09T00:09:43.709Z,66.66
2019-01-09T00:10:19.455Z,66.01
2019-01-09T00:10:55.152Z,65.42
2019-01-09T00:11:30.805Z,65.67
2019-01-09T00:12:06.213Z,65.79
2019-01-09T00:12:41.883Z,65.58
2019-01-09T00:13:17.284Z,65.58
2019-01-09T00:13:53.105Z,65.55
2019-01-09T00:14:28.792Z,65.32
2019-01-09T00:15:04.446Z,65.17
2019-01-09T00:15:39.974Z,65.07
2019-01-09T00:16:15.351Z,65.52
2019-01-09T00:16:50.730Z,65.99
2019-01-09T00:17:26.166Z,65.84
2019-01-09T00:18:01.615Z,65.15
2019-01-09T00:18:37.624Z,65.53
2019-01-09T00:19:13.300Z,65.42
2019-01-09T00:19:48.768Z,64.80
2019-01-09T00:20:24.402Z,64.63
2019-01-09T00:21:00.067Z,64.81
2019-01-09T00:21:36.076Z,65.05
2019-01-09T00:22:12.052Z,64.79
2019-01-09T00:22:47.772Z,64.73
2019-01-09T00:23:23.871Z,64.93
2019-01-09T00:24:00.392Z,65.14
2019-01-09T00:24:35.860Z,65.21
2019-01-09T00:25:11.599Z,65.06
2019-01-09T00:25:47.501Z,65.18
2019-01-09T00:26:23.164Z,64.68
2019-01-09T00:26:59.279Z,64.81
2019-01-09T00:27:34.765Z,64.79
2019-01-09T00:28:10.194Z,64.87
2019-01-09T00:28:46.342Z,64.96
2019-01-09T00:29:22.015Z,64.96
2019-01-09T00:29:57.799Z,65.36
2019-01-09T00:30:33.563Z,65.16
2019-01-09T00:31:09.209Z,65.50
2019-01-09T00:31:44.601Z,65.27
2019-01-09T00:32:20.960Z,65.44
2019-01-09T00:32:56.908Z,65.21
2019-01-09T00:33:32.292Z,65.79
2019-01-09T00:34:07.751Z,65.96
2019-01-09T00:34:43.718Z,65.75
2019-01-09T00:35:20.090Z,66.13
2019-01-09T00:35:55.656Z,66.25
2019-01-09T00:36:31.565Z,65.92
2019-01-09T00:37:07.572Z,65.83
2019-01-09T00:37:43.832Z,65.76
2019-01-09T00:38:19.396Z,65.68
2019-01-09T00:38:55.118Z,65.58
2019-01-09T00:39:30.904Z,65.97
2019-01-09T00:40:07.122Z,66.04
2019-01-09T00:40:42.811Z,66.25
2019-01-09T00:41:18.612Z,66.44
2019-01-09T00:41:54.288Z,66.15
2019-01-09T00:42:30.590Z,66.21
2019-01-09T00:43:06.064Z,66.51
2019-01-09T00:43:41.928Z,66.36
2019-01-09T00:44:17.685Z,66.82
2019-01-09T00:44:53.188Z,66.22
2019-01-09T00:45:28.738Z,66.30
2019-01-09T00:46:04.282Z,66.26
2019-01-09T00:46:40.220Z,66.82
2019-01-09T00:47:15.853Z,66.24
2019-01-09T00:47:51.582Z,66.16
2019-01-09T00:48:26.981Z,66.31
2019-01-09T00:49:02.842Z,66.30
2019-01-09T00:49:38.762Z,66.42
2019-01-09T00:50:14.663Z,66.79
2019-01-09T00:50:50.321Z,66.87
2019-01-09T00:51:27.272Z,66.88
2019-01-09T00:52:02.789Z,67.16
2019-01-09T00:52:38.354Z,67.37
2019-01-09T00:53:13.830Z,67.22
2019-01-09T00:53:50.060Z,67.54
2019-01-09T00:54:25.446Z,67.29
2019-01-09T00:55:01.292Z,66.71
2019-01-09T00:55:36.716Z,66.93
2019-01-09T00:56:12.174Z,67.00
2019-01-09T00:56:47.597Z,66.45
2019-01-09T00:57:22.986Z,66.64
2019-01-09T00:57:58.663Z,66.81
2019-01-09T00:58:34.358Z,67.27
2019-01-09T00:59:10.292Z,67.77
2019-01-09T00:59:45.670Z,67.26
2019-01-09T01:00:21.801Z,67.19
2019-01-09T01:00:57.220Z,67.24
2019-01-09T01:01:32.646Z,67.17
2019-01-09T01:02:47.044Z,67.47
2019-01-09T01:04:14.781Z,67.69
2019-01-09T01:05:22.995Z,68.16
2019-01-09T01:06:43.871Z,68.25
2019-01-09T01:07:57.710Z,68.47
2019-01-09T01:09:16.495Z,68.74
2019-01-09T01:10:28.810Z,68.77
2019-01-09T01:11:37.769Z,69.20
2019-01-09T01:12:53.354Z,69.10
2019-01-09T01:13:53.824Z,68.78
2019-01-09T01:15:04.044Z,69.73
2019-01-09T01:16:19.161Z,69.90
2019-01-09T01:17:26.248Z,71.41
2019-01-09T01:18:32.028Z,70.77
2019-01-09T01:19:47.252Z,70.91
2019-01-09T01:20:57.192Z,71.19
2019-01-09T01:21:41.001Z,72.20
2019-01-09T01:23:09.362Z,71.88
2019-01-09T01:24:27.935Z,71.71
2019-01-09T01:25:43.888Z,73.98
2019-01-09T01:27:27.887Z,75.58
2019-01-09T01:28:37.145Z,75.66
2019-01-09T01:29:47.359Z,76.95
2019-01-09T01:30:55.042Z,76.58
2019-01-09T01:32:07.425Z,76.36
2019-01-09T01:33:12.123Z,76.27
2019-01-09T01:34:13.966Z,76.04
2019-01-09T01:35:45.415Z,75.75
2019-01-09T01:37:10.062Z,76.20
2019-01-09T01:38:47.746Z,76.05
2019-01-09T01:39:45.009Z,76.40
2019-01-09T01:40:44.264Z,76.96
2019-01-09T01:42:00.565Z,76.48
2019-01-09T01:43:11.335Z,76.54
2019-01-09T01:44:14.574Z,75.99
2019-01-09T01:45:08.482Z,76.16
2019-01-09T01:45:57.473Z,76.50
2019-01-09T01:47:03.377Z,76.86
2019-01-09T01:48:11.570Z,77.07
2019-01-09T01:49:24.853Z,76.67
2019-01-09T01:50:24.773Z,76.44
2019-01-09T01:51:49.474Z,76.83
2019-01-09T01:53:09.399Z,76.68
2019-01-09T01:54:24.917Z,76.90
2019-01-09T01:55:25.409Z,77.31
2019-01-09T01:56:38.437Z,77.60
2019-01-09T01:58:10.133Z,77.26
2019-01-09T01:59:19.817Z,77.26
2019-01-09T02:00:37.258Z,75.99
2019-01-09T02:01:41.635Z,76.43
2019-01-09T02:02:35.151Z,76.75
2019-01-09T02:03:53.118Z,76.53
2019-01-09T02:05:18.623Z,76.38
2019-01-09T02:06:04.304Z,76.22
2019-01-09T02:07:31.290Z,75.47
2019-01-09T02:08:32.159Z,75.28
2019-01-09T02:09:39.760Z,75.63
2019-01-09T02:10:51.687Z,75.01
2019-01-09T02:12:20.206Z,74.93
2019-01-09T02:13:35.036Z,74.31
2019-01-09T02:14:57.753Z,74.08
2019-01-09T02:16:20.007Z,73.32
2019-01-09T02:17:48.012Z,73.16
2019-01-09T02:18:38.235Z,72.77
2019-01-09T02:19:28.038Z,72.67
2019-01-09T02:20:49.384Z,72.94
2019-01-09T02:21:36.360Z,72.70
2019-01-09T02:23:03.754Z,71.77
2019-01-09T02:24:27.706Z,71.22
2019-01-09T02:25:29.376Z,71.50
2019-01-09T02:26:46.974Z,69.94
2019-01-09T02:27:45.185Z,69.75
2019-01-09T02:29:07.908Z,70.23
2019-01-09T02:30:36.083Z,70.16
2019-01-09T02:31:55.202Z,70.37
2019-01-09T02:32:34.325Z,69.59
2019-01-09T02:33:09.853Z,70.12
2019-01-09T02:33:45.507Z,69.76
2019-01-09T02:34:20.949Z,69.24
2019-01-09T02:34:56.345Z,69.17
2019-01-09T02:35:31.780Z,69.38
2019-01-09T02:36:13.399Z,69.62
2019-01-09T02:36:44.708Z,69.88
2019-01-09T02:37:20.361Z,69.65
2019-01-09T02:37:55.755Z,70.04
2019-01-09T02:38:31.428Z,69.26
2019-01-09T02:39:07.214Z,69.27
2019-01-09T02:39:42.620Z,68.63
2019-01-09T02:40:18.011Z,68.70
2019-01-09T02:40:53.460Z,68.89
2019-01-09T02:41:29.125Z,69.21
2019-01-09T02:42:04.534Z,68.52
2019-01-09T02:42:40.257Z,68.80
2019-01-09T02:43:15.671Z,68.98
2019-01-09T02:43:51.182Z,69.35
2019-01-09T02:44:32.185Z,69.02
2019-01-09T02:45:03.712Z,68.90
2019-01-09T02:45:39.160Z,68.01
2019-01-09T02:46:14.636Z,68.10
2019-01-09T02:46:50.007Z,67.56
2019-01-09T02:47:25.430Z,68.22
2019-01-09T02:48:01.121Z,68.23
2019-01-09T02:48:36.864Z,68.12
2019-01-09T02:49:12.244Z,68.65
2019-01-09T02:49:47.888Z,68.37
2019-01-09T02:50:23.277Z,68.61
2019-01-09T02:50:58.996Z,68.49
2019-01-09T02:51:34.702Z,68.06
2019-01-09T02:52:10.156Z,68.53
2019-01-09T02:52:45.538Z,67.91
2019-01-09T02:53:20.934Z,67.77
2019-01-09T02:53:56.581Z,67.96
2019-01-09T02:54:32.257Z,67.76
2019-01-09T02:55:08.756Z,68.00
2019-01-09T02:55:44.265Z,67.97
2019-01-09T02:56:19.983Z,67.88
2019-01-09T02:56:55.384Z,68.28
2019-01-09T02:57:30.839Z,68.44
2019-01-09T02:58:07.940Z,68.23
2019-01-09T02:58:43.614Z,68.31
2019-01-09T02:59:19.233Z,68.26
2019-01-09T02:59:54.622Z,68.51
2019-01-09T03:00:30.094Z,68.60
2019-01-09T03:01:05.482Z,68.83
2019-01-09T03:01:40.917Z,68.20
2019-01-09T03:02:16.300Z,67.84
2019-01-09T03:02:52.023Z,67.21
2019-01-09T03:03:27.423Z,66.75
2019-01-09T03:04:03.407Z,66.71
2019-01-09T03:04:38.788Z,67.22
2019-01-09T03:05:14.766Z,67.35
2019-01-09T03:05:50.448Z,67.21
2019-01-09T03:06:26.100Z,67.28
2019-01-09T03:07:01.592Z,67.24
2019-01-09T03:07:37.054Z,67.45
2019-01-09T03:08:12.500Z,67.52
2019-01-09T03:08:47.899Z,67.30
2019-01-09T03:09:23.284Z,67.27
2019-01-09T03:09:58.695Z,67.36
2019-01-09T03:10:34.687Z,66.95
2019-01-09T03:11:10.142Z,67.59
2019-01-09T03:11:45.826Z,68.11
2019-01-09T03:12:21.247Z,67.72
2019-01-09T03:12:56.799Z,68.05
2019-01-09T03:13:32.552Z,68.15
2019-01-09T03:14:08.247Z,68.14
2019-01-09T03:14:43.645Z,67.91
2019-01-09T03:15:19.050Z,68.24
2019-01-09T03:15:54.495Z,68.03
2019-01-09T03:16:30.104Z,67.40
2019-01-09T03:17:05.493Z,67.57
2019-01-09T03:17:40.915Z,67.56
2019-01-09T03:18:16.311Z,67.78
2019-01-09T03:18:52.293Z,68.30
2019-01-09T03:19:27.703Z,68.42
2019-01-09T03:20:03.219Z,68.04
2019-01-09T03:20:38.645Z,67.97
2019-01-09T03:21:14.315Z,67.28
2019-01-09T03:21:49.935Z,67.67
2019-01-09T03:22:25.595Z,68.11
2019-01-09T03:23:01.034Z,67.60
2019-01-09T03:23:36.454Z,67.44
2019-01-09T03:24:11.862Z,66.91
2019-01-09T03:24:47.357Z,66.94
2019-01-09T03:25:23.082Z,66.96
2019-01-09T03:25:58.534Z,67.62
2019-01-09T03:26:33.961Z,67.47
2019-01-09T03:27:09.766Z,67.71
2019-01-09T03:27:45.424Z,68.07
2019-01-09T03:28:21.135Z,67.90
2019-01-09T03:28:56.554Z,67.63
2019-01-09T03:29:32.385Z,67.57
2019-01-09T03:30:08.373Z,68.35
2019-01-09T03:30:43.864Z,67.96
2019-01-09T03:31:19.646Z,68.33
2019-01-09T03:31:55.042Z,68.58
2019-01-09T03:32:30.480Z,67.88
2019-01-09T03:33:06.096Z,68.17
2019-01-09T03:33:41.483Z,68.18
2019-01-09T03:34:17.144Z,67.81
2019-01-09T03:34:52.543Z,68.04
2019-01-09T03:35:28.487Z,68.08
2019-01-09T03:36:04.062Z,68.15
2019-01-09T03:36:39.452Z,68.10
2019-01-09T03:37:15.389Z,67.94
2019-01-09T03:37:50.783Z,68.07
2019-01-09T03:38:26.195Z,68.37
2019-01-09T03:39:01.928Z,68.88
2019-01-09T03:39:37.946Z,68.87
2019-01-09T03:40:13.351Z,69.04
2019-01-09T03:40:49.097Z,68.68
2019-01-09T03:41:24.498Z,68.98
2019-01-09T03:41:59.951Z,69.20
2019-01-09T03:42:35.662Z,69.26
2019-01-09T03:43:11.081Z,69.51
2019-01-09T03:43:46.769Z,69.37
2019-01-09T03:44:22.240Z,69.30
2019-01-09T03:44:57.979Z,69.50
2019-01-09T03:45:33.787Z,69.83
2019-01-09T03:46:09.522Z,69.16
2019-01-09T03:46:45.159Z,69.63
2019-01-09T03:47:20.552Z,69.54
2019-01-09T03:47:56.214Z,69.39
2019-01-09T03:48:31.643Z,69.65
2019-01-09T03:49:07.159Z,69.83
2019-01-09T03:49:42.543Z,70.04
2019-01-09T03:50:18.004Z,69.76
2019-01-09T03:50:53.574Z,69.78
2019-01-09T03:51:29.018Z,70.12
2019-01-09T03:52:05.277Z,70.10
2019-01-09T03:52:40.687Z,69.83
2019-01-09T03:53:16.324Z,69.88
2019-01-09T03:53:52.019Z,69.80
2019-01-09T03:54:27.738Z,69.77
2019-01-09T03:55:03.196Z,70.05
2019-01-09T03:55:38.887Z,70.32
2019-01-09T03:56:14.288Z,70.25
2019-01-09T03:56:49.653Z,70.02
2019-01-09T03:57:25.641Z,70.57
2019-01-09T03:58:01.060Z,70.30
2019-01-09T03:58:36.468Z,70.50
2019-01-09T03:59:12.189Z,70.70
2019-01-09T03:59:48.109Z,70.70
2019-01-09T04:00:23.834Z,70.31
2019-01-09T04:00:59.299Z,69.99
2019-01-09T04:01:34.759Z,69.54
2019-01-09T04:02:10.184Z,69.70
2019-01-09T04:02:45.900Z,69.86
2019-01-09T04:03:21.266Z,69.73
2019-01-09T04:03:57.004Z,69.31
2019-01-09T04:04:32.414Z,69.20
2019-01-09T04:05:07.843Z,69.94
2019-01-09T04:05:43.507Z,70.33
2019-01-09T04:06:18.938Z,70.37
2019-01-09T04:06:54.652Z,69.82
2019-01-09T04:07:30.197Z,70.32
2019-01-09T04:08:05.596Z,70.21
2019-01-09T04:08:40.964Z,70.34
2019-01-09T04:09:16.679Z,70.32
2019-01-09T04:09:52.372Z,70.10
2019-01-09T04:10:27.774Z,70.09
2019-01-09T04:11:03.201Z,69.98
2019-01-09T04:11:39.160Z,70.23
2019-01-09T04:12:14.552Z,70.32
2019-01-09T04:12:50.276Z,70.47
2019-01-09T04:13:25.660Z,70.67
2019-01-09T04:14:01.359Z,70.69
2019-01-09T04:14:37.033Z,70.78
2019-01-09T04:15:12.701Z,71.09
2019-01-09T04:15:48.076Z,70.22
2019-01-09T04:16:23.773Z,70.25
2019-01-09T04:16:59.172Z,70.21
2019-01-09T04:17:34.583Z,70.09
2019-01-09T04:18:10.256Z,69.91
2019-01-09T04:18:45.732Z,69.90
2019-01-09T04:19:21.392Z,69.74
2019-01-09T04:19:56.814Z,70.11
2019-01-09T04:20:32.259Z,69.96
2019-01-09T04:21:07.941Z,70.21
2019-01-09T04:21:43.696Z,70.27
2019-01-09T04:22:20.520Z,70.25
2019-01-09T04:22:56.312Z,69.81
2019-01-09T04:23:32.013Z,70.54
2019-01-09T04:24:07.448Z,70.83
2019-01-09T04:24:43.109Z,70.60
2019-01-09T04:25:20.112Z,70.50
2019-01-09T04:25:55.467Z,70.23
2019-01-09T04:26:30.937Z,70.78
2019-01-09T04:27:06.380Z,70.55
2019-01-09T04:27:41.773Z,70.67
2019-01-09T04:28:17.160Z,70.92
2019-01-09T04:28:52.535Z,70.87
2019-01-09T04:29:28.190Z,71.03
2019-01-09T04:30:03.697Z,71.34
2019-01-09T04:30:39.104Z,71.43
2019-01-09T04:31:14.502Z,71.27
2019-01-09T04:31:50.236Z,71.61
2019-01-09T04:32:25.630Z,71.29
2019-01-09T04:33:01.402Z,71.16
2019-01-09T04:33:36.862Z,71.45
2019-01-09T04:34:12.343Z,72.06
2019-01-09T04:34:47.736Z,72.43
2019-01-09T04:35:23.408Z,72.26
2019-01-09T04:35:58.835Z,72.19
2019-01-09T04:36:34.602Z,72.18
2019-01-09T04:37:10.232Z,71.74
2019-01-09T04:37:45.667Z,72.07
2019-01-09T04:38:21.076Z,72.74
2019-01-09T04:38:56.458Z,72.59
2019-01-09T04:39:31.877Z,72.80
2019-01-09T04:40:07.408Z,73.03
2019-01-09T04:40:42.837Z,72.97
2019-01-09T04:41:18.253Z,72.71
2019-01-09T04:41:54.031Z,72.48
2019-01-09T04:42:29.522Z,72.77
2019-01-09T04:43:04.977Z,72.60
2019-01-09T04:43:40.397Z,72.44
2019-01-09T04:44:16.356Z,72.37
2019-01-09T04:44:51.756Z,72.59
2019-01-09T04:45:27.146Z,72.35
2019-01-09T04:46:02.943Z,71.80
2019-01-09T04:46:38.723Z,70.87
2019-01-09T04:47:14.101Z,71.41
2019-01-09T04:47:49.848Z,71.35
2019-01-09T04:48:25.229Z,71.69
2019-01-09T04:49:00.921Z,71.96
2019-01-09T04:49:36.361Z,71.23
2019-01-09T04:50:11.741Z,70.23
2019-01-09T04:50:47.669Z,70.17
2019-01-09T04:51:23.071Z,70.06
2019-01-09T04:51:58.507Z,70.23
2019-01-09T04:52:33.908Z,69.93
2019-01-09T04:53:09.319Z,69.76
2019-01-09T04:53:44.705Z,69.81
2019-01-09T04:54:20.626Z,69.74
2019-01-09T04:54:55.996Z,69.79
2019-01-09T04:55:31.418Z,69.90
2019-01-09T04:56:07.424Z,69.89
2019-01-09T04:56:43.136Z,69.99
2019-01-09T04:57:18.805Z,69.83
2019-01-09T04:57:54.182Z,70.00
2019-01-09T04:58:29.591Z,70.00
2019-01-09T04:59:04.989Z,70.40
2019-01-09T04:59:40.371Z,70.25
2019-01-09T05:00:15.765Z,70.37
2019-01-09T05:00:51.705Z,70.29
2019-01-09T05:01:27.424Z,70.52
2019-01-09T05:02:02.924Z,70.78
2019-01-09T05:02:38.392Z,71.03
2019-01-09T05:03:13.779Z,71.00
2019-01-09T05:03:49.155Z,71.21
2019-01-09T05:04:24.553Z,71.32
2019-01-09T05:05:00.369Z,71.46
2019-01-09T05:05:35.770Z,71.74
2019-01-09T05:06:11.173Z,71.57
2019-01-09T05:06:46.990Z,71.67
2019-01-09T05:07:22.394Z,71.73
2019-01-09T05:07:58.680Z,71.86
2019-01-09T05:08:34.112Z,72.15
2019-01-09T05:09:09.622Z,72.62
2019-01-09T05:09:45.351Z,72.87
2019-01-09T05:10:21.014Z,72.87
2019-01-09T05:10:56.699Z,73.15
2019-01-09T05:11:32.388Z,73.31
2019-01-09T05:12:07.868Z,73.60
2019-01-09T05:12:43.242Z,73.41
2019-01-09T05:13:18.672Z,73.37
2019-01-09T05:13:54.070Z,73.59
2019-01-09T05:14:29.513Z,73.89
2019-01-09T05:15:05.166Z,74.13
2019-01-09T05:15:40.576Z,74.12
2019-01-09T05:16:16.010Z,73.70
2019-01-09T05:16:51.757Z,73.48
2019-01-09T05:17:27.155Z,73.75
2019-01-09T05:18:02.952Z,74.42
2019-01-09T05:18:38.405Z,74.97
2019-01-09T05:19:13.794Z,75.16
2019-01-09T05:19:49.223Z,75.12
2019-01-09T05:20:24.603Z,75.50
2019-01-09T05:21:00.250Z,75.76
2019-01-09T05:21:35.656Z,75.76
2019-01-09T05:22:11.121Z,75.80
2019-01-09T05:22:46.797Z,75.90
2019-01-09T05:23:22.463Z,76.00
2019-01-09T05:23:57.936Z,76.18
2019-01-09T05:24:33.404Z,75.70
2019-01-09T05:25:08.852Z,75.95
2019-01-09T05:25:44.671Z,76.12
2019-01-09T05:26:20.156Z,76.45
2019-01-09T05:26:55.905Z,76.35
2019-01-09T05:27:31.673Z,76.30
2019-01-09T05:28:07.446Z,76.55
2019-01-09T05:28:42.842Z,76.74
2019-01-09T05:29:18.533Z,76.70
2019-01-09T05:29:53.956Z,76.51
2019-01-09T05:30:29.339Z,76.36
2019-01-09T05:31:07.620Z,76.41
2019-01-09T05:31:42.256Z,76.15
2019-01-09T05:32:17.675Z,76.35
2019-01-09T05:32:53.106Z,76.30
2019-01-09T05:33:28.954Z,76.01
2019-01-09T05:34:04.609Z,75.55
2019-01-09T05:34:40.023Z,75.39
2019-01-09T05:35:15.440Z,75.68
2019-01-09T05:35:50.847Z,75.95
2019-01-09T05:36:26.485Z,76.28
2019-01-09T05:37:09.360Z,76.66
2019-01-09T05:37:39.330Z,76.86
2019-01-09T05:38:15.007Z,77.06
2019-01-09T05:38:50.405Z,76.75
2019-01-09T05:39:26.133Z,76.71
2019-01-09T05:40:01.529Z,76.50
2019-01-09T05:40:36.934Z,76.43
2019-01-09T05:41:12.891Z,76.77
2019-01-09T05:41:48.291Z,76.99
2019-01-09T05:42:23.970Z,76.94
2019-01-09T05:42:59.695Z,76.99
2019-01-09T05:43:35.120Z,76.95
2019-01-09T05:44:10.535Z,76.94
2019-01-09T05:44:46.190Z,76.85
2019-01-09T05:45:21.616Z,77.08
2019-01-09T05:45:57.044Z,77.08
2019-01-09T05:46:32.447Z,77.08
2019-01-09T05:47:07.980Z,77.14
2019-01-09T05:47:43.703Z,77.11
2019-01-09T05:48:19.748Z,77.04
2019-01-09T05:48:55.407Z,77.03
2019-01-09T05:49:30.838Z,77.36
2019-01-09T05:50:06.374Z,77.64
2019-01-09T05:50:42.331Z,77.81
2019-01-09T05:51:17.724Z,77.16
2019-01-09T05:51:53.106Z,77.25
2019-01-09T05:52:28.573Z,77.24
2019-01-09T05:53:04.081Z,77.11
2019-01-09T05:53:39.968Z,77.24
2019-01-09T05:54:15.616Z,77.26
2019-01-09T05:54:51.439Z,77.29
2019-01-09T05:55:26.819Z,77.32
2019-01-09T05:56:02.549Z,77.32
2019-01-09T05:56:38.169Z,77.47
2019-01-09T05:57:13.836Z,77.54
2019-01-09T05:57:49.218Z,77.37
2019-01-09T05:58:24.616Z,77.05
2019-01-09T05:59:00.335Z,76.91
2019-01-09T05:59:35.761Z,76.97
2019-01-09T06:00:11.391Z,76.83
2019-01-09T06:00:47.043Z,76.72
2019-01-09T06:01:22.547Z,76.89
2019-01-09T06:01:57.922Z,77.06
2019-01-09T06:02:33.382Z,77.13
2019-01-09T06:03:08.817Z,76.97
2019-01-09T06:03:44.175Z,76.98
2019-01-09T06:04:19.908Z,77.01
2019-01-09T06:04:55.330Z,77.03
2019-01-09T06:05:30.998Z,76.73
2019-01-09T06:06:06.449Z,76.45
2019-01-09T06:06:41.844Z,76.43
2019-01-09T06:07:18.608Z,76.39
2019-01-09T06:07:54.233Z,76.45
2019-01-09T06:08:30.024Z,76.47
2019-01-09T06:09:06.708Z,76.37
2019-01-09T06:09:42.111Z,76.38
2019-01-09T06:10:17.501Z,76.40
2019-01-09T06:10:53.185Z,76.26
2019-01-09T06:11:29.199Z,76.31
2019-01-09T06:12:04.623Z,76.45
2019-01-09T06:12:40.049Z,76.70
2019-01-09T06:13:15.751Z,76.93
2019-01-09T06:13:51.144Z,76.85
2019-01-09T06:14:26.781Z,76.73
2019-01-09T06:15:02.229Z,76.59
2019-01-09T06:15:37.616Z,76.58
2019-01-09T06:16:13.306Z,76.58
2019-01-09T06:16:48.681Z,76.23
2019-01-09T06:17:24.363Z,76.02
2019-01-09T06:17:59.886Z,75.78
2019-01-09T06:18:35.316Z,75.93
2019-01-09T06:19:10.739Z,75.37
2019-01-09T06:19:46.742Z,75.40
2019-01-09T06:20:22.170Z,74.73
2019-01-09T06:20:57.570Z,74.73
2019-01-09T06:21:32.998Z,74.79
2019-01-09T06:22:08.803Z,74.83
2019-01-09T06:22:44.535Z,75.12
2019-01-09T06:23:20.276Z,74.70
2019-01-09T06:23:55.707Z,74.73
2019-01-09T06:24:31.761Z,74.42
2019-01-09T06:25:07.361Z,74.34
2019-01-09T06:25:42.780Z,74.45
2019-01-09T06:26:18.533Z,74.19
2019-01-09T06:26:54.302Z,74.11
2019-01-09T06:27:29.742Z,74.37
2019-01-09T06:28:05.222Z,74.25
2019-01-09T06:28:40.611Z,74.02
2019-01-09T06:29:16.025Z,74.19
2019-01-09T06:29:51.694Z,74.17
2019-01-09T06:30:27.121Z,74.20
2019-01-09T06:31:02.616Z,74.05
2019-01-09T06:31:38.093Z,74.26
2019-01-09T06:32:13.765Z,74.26
2019-01-09T06:32:49.484Z,74.20
2019-01-09T06:33:25.180Z,74.13
2019-01-09T06:34:00.962Z,73.87
2019-01-09T06:34:36.484Z,74.04
2019-01-09T06:35:12.472Z,74.09
2019-01-09T06:35:47.913Z,73.84
2019-01-09T06:36:23.420Z,74.02
2019-01-09T06:36:58.831Z,74.14
2019-01-09T06:37:34.607Z,73.93
2019-01-09T06:38:10.345Z,73.84
2019-01-09T06:38:45.738Z,73.11
2019-01-09T06:39:21.388Z,72.34
2019-01-09T06:39:56.795Z,72.43
2019-01-09T06:40:32.519Z,72.47
2019-01-09T06:41:08.192Z,72.46
2019-01-09T06:41:43.865Z,72.61
2019-01-09T06:42:19.553Z,72.68
2019-01-09T06:42:55.250Z,72.31
2019-01-09T06:43:31.016Z,71.98
2019-01-09T06:44:06.429Z,71.91
2019-01-09T06:44:41.812Z,71.81
2019-01-09T06:45:17.258Z,71.95
2019-01-09T06:45:52.678Z,71.68
2019-01-09T06:46:28.402Z,71.30
2019-01-09T06:47:03.885Z,71.12
2019-01-09T06:47:39.308Z,71.24
2019-01-09T06:48:15.012Z,70.80
2019-01-09T06:48:50.429Z,70.76
2019-01-09T06:49:26.049Z,70.91
2019-01-09T06:50:01.470Z,70.64
2019-01-09T06:50:36.929Z,70.87
2019-01-09T06:51:12.597Z,70.61
2019-01-09T06:51:47.983Z,70.79
2019-01-09T06:52:23.612Z,70.58
2019-01-09T06:52:59.374Z,69.79
2019-01-09T06:53:34.810Z,70.00
2019-01-09T06:54:10.214Z,69.81
2019-01-09T06:54:45.592Z,69.83
2019-01-09T06:55:20.943Z,70.23
2019-01-09T06:55:56.668Z,70.22
2019-01-09T06:56:32.094Z,70.48
2019-01-09T06:57:07.505Z,69.91
2019-01-09T06:57:43.158Z,68.66
2019-01-09T06:58:20.201Z,68.54
2019-01-09T06:58:55.689Z,68.94
2019-01-09T06:59:31.405Z,69.00
2019-01-09T07:00:08.123Z,68.74
2019-01-09T07:00:43.782Z,68.61
2019-01-09T07:01:19.435Z,68.58
2019-01-09T07:01:54.833Z,68.22
2019-01-09T07:02:30.279Z,68.01
2019-01-09T07:03:06.067Z,68.12
2019-01-09T07:03:41.436Z,67.81
2019-01-09T07:04:16.830Z,67.81
2019-01-09T07:04:52.529Z,67.93
2019-01-09T07:05:28.196Z,67.12
2019-01-09T07:06:03.689Z,67.62
2019-01-09T07:06:39.663Z,67.49
2019-01-09T07:07:15.039Z,66.82
2019-01-09T07:07:50.520Z,66.83
2019-01-09T07:08:26.546Z,66.83
2019-01-09T07:09:01.893Z,67.02
2019-01-09T07:09:37.552Z,67.43
2019-01-09T07:10:12.944Z,66.72
2019-01-09T07:10:48.318Z,66.44
2019-01-09T07:11:23.968Z,66.77
2019-01-09T07:11:59.944Z,66.94
2019-01-09T07:12:35.472Z,67.06
2019-01-09T07:13:10.931Z,66.23
2019-01-09T07:13:46.600Z,66.21
2019-01-09T07:14:22.009Z,66.01
2019-01-09T07:14:57.741Z,66.21
2019-01-09T07:15:33.487Z,66.61
2019-01-09T07:16:08.886Z,66.99
2019-01-09T07:16:44.320Z,66.30
2019-01-09T07:17:19.992Z,66.37
2019-01-09T07:17:55.398Z,66.83
2019-01-09T07:18:31.155Z,66.38
2019-01-09T07:19:06.591Z,66.32
2019-01-09T07:19:41.991Z,66.13
2019-01-09T07:20:17.426Z,66.05
2019-01-09T07:20:53.134Z,65.96
2019-01-09T07:21:28.575Z,66.14
2019-01-09T07:22:04.119Z,66.31
2019-01-09T07:22:40.070Z,66.52
2019-01-09T07:23:15.816Z,66.58
2019-01-09T07:23:51.515Z,66.39
2019-01-09T07:24:26.946Z,66.14
2019-01-09T07:25:02.409Z,65.99
2019-01-09T07:25:37.812Z,66.22
2019-01-09T07:26:13.475Z,66.46
2019-01-09T07:26:48.872Z,66.22
2019-01-09T07:27:24.259Z,65.96
2019-01-09T07:27:59.968Z,65.87
2019-01-09T07:28:35.464Z,66.12
2019-01-09T07:29:10.871Z,65.89
2019-01-09T07:29:46.254Z,66.01
2019-01-09T07:30:21.895Z,65.70
2019-01-09T07:30:57.289Z,65.92
2019-01-09T07:31:33.031Z,65.86
2019-01-09T07:32:08.716Z,65.83
2019-01-09T07:32:44.147Z,65.93
2019-01-09T07:33:19.801Z,66.00
2019-01-09T07:33:55.223Z,66.09
2019-01-09T07:34:30.713Z,66.03
2019-01-09T07:35:06.163Z,65.73
2019-01-09T07:35:41.561Z,65.60
2019-01-09T07:36:16.954Z,65.70
2019-01-09T07:36:52.898Z,65.65
2019-01-09T07:37:28.334Z,66.23
2019-01-09T07:38:04.379Z,65.17
2019-01-09T07:38:39.794Z,64.85
2019-01-09T07:39:16.935Z,65.12
2019-01-09T07:39:52.724Z,64.78
2019-01-09T07:40:28.129Z,65.22
2019-01-09T07:41:03.845Z,64.76
2019-01-09T07:41:39.239Z,64.71
2019-01-09T07:42:14.646Z,65.07
2019-01-09T07:42:50.053Z,64.95
2019-01-09T07:43:25.686Z,65.11
2019-01-09T07:44:01.179Z,64.57
2019-01-09T07:44:36.594Z,65.11
2019-01-09T07:45:11.969Z,64.79
2019-01-09T07:45:47.601Z,64.17
2019-01-09T07:46:22.991Z,64.40
2019-01-09T07:46:58.379Z,64.84
2019-01-09T07:47:33.798Z,64.86
2019-01-09T07:48:09.825Z,65.00
2019-01-09T07:48:45.565Z,64.81
2019-01-09T07:49:21.248Z,64.71
2019-01-09T07:49:56.666Z,64.26
2019-01-09T07:50:32.388Z,63.50
2019-01-09T07:51:07.809Z,63.54
2019-01-09T07:51:43.447Z,63.83
2019-01-09T07:52:18.870Z,63.94
2019-01-09T07:52:54.754Z,63.70
2019-01-09T07:53:30.493Z,63.77
2019-01-09T07:54:05.998Z,63.35
2019-01-09T07:54:41.979Z,63.38
2019-01-09T07:55:17.648Z,63.64
2019-01-09T07:55:53.306Z,63.79
2019-01-09T07:56:29.416Z,63.91
2019-01-09T07:57:04.886Z,63.83
2019-01-09T07:57:40.538Z,63.87
2019-01-09T07:58:16.676Z,63.90
2019-01-09T07:58:52.106Z,63.75
2019-01-09T07:59:27.772Z,63.49
2019-01-09T08:00:03.437Z,63.55
2019-01-09T08:00:38.825Z,63.93
2019-01-09T08:01:14.255Z,63.97
2019-01-09T08:01:50.199Z,63.87
2019-01-09T08:02:25.586Z,63.86
2019-01-09T08:03:01.077Z,64.22
2019-01-09T08:03:36.563Z,64.28
2019-01-09T08:04:12.084Z,64.24
2019-01-09T08:04:47.530Z,63.85
2019-01-09T08:05:22.958Z,63.69
2019-01-09T08:06:00.962Z,62.91
2019-01-09T08:06:36.463Z,63.45
2019-01-09T08:07:11.876Z,63.79
2019-01-09T08:07:53.846Z,63.80
2019-01-09T08:08:24.442Z,64.09
2019-01-09T08:08:59.909Z,63.63
2019-01-09T08:09:35.403Z,63.71
2019-01-09T08:10:11.207Z,63.86
2019-01-09T08:10:46.595Z,63.78
2019-01-09T08:11:21.977Z,63.70
2019-01-09T08:11:57.400Z,63.71
2019-01-09T08:12:32.885Z,64.22
2019-01-09T08:13:08.310Z,64.23
2019-01-09T08:13:43.768Z,63.88
2019-01-09T08:14:19.729Z,63.42
2019-01-09T08:14:55.149Z,63.08
2019-01-09T08:15:30.603Z,63.54
2019-01-09T08:16:06.294Z,63.96
2019-01-09T08:16:41.683Z,64.21
2019-01-09T08:17:17.076Z,63.67
2019-01-09T08:17:52.708Z,63.44
2019-01-09T08:18:28.216Z,63.39
2019-01-09T08:19:04.011Z,63.49
2019-01-09T08:19:39.416Z,63.14
2019-01-09T08:20:14.818Z,62.91
2019-01-09T08:20:50.240Z,63.16
2019-01-09T08:21:25.628Z,63.28
2019-01-09T08:22:01.147Z,63.77
2019-01-09T08:22:36.565Z,64.08
2019-01-09T08:23:11.964Z,63.95
2019-01-09T08:23:47.637Z,63.60
2019-01-09T08:24:23.359Z,63.46
2019-01-09T08:24:58.821Z,62.67